aviador You're here:

K2W6 Decoded Metar

CAPT DUKE RGNL in MD, USA
Report Time2017-03-23 02:01:00
UTC Time2017-03-23 02:18:53
Flight Rules vfr VFR
WindCalm
Visibility9999 m
Phenomena:N/A
Clouds:N/A
Expected CloudBase > 6,800 ft AGL from Temp-Dew spread
CeilingNone
Temp03°C (ISA -12)
Dew Point-14°C (28% RH)
AAT-0.3°C
QNH1031 hPa
Density Alt-1,854 ft
Elevation144 ft
Report Wrong Elevation
Raw Report
K2W6 230201Z AUTO 00000KT 10SM CLR 03/M14 A3045 RMK AO1=

Extra information for K2W6:More info

Metar Taf Metar & Taf Last 4 Metars F.Rules Stats Wind Profile Meteogram Temp Stats Airport Information Weather charts Add Link Nearby VenuesMetar ALERT Operation Metar Decoded Social comments

AIRNAV info for K2W6